createdAt,value
2023-03-20T00:02:21.907Z,4.61
2023-03-20T00:04:50.511Z,4.60
2023-03-20T00:07:18.609Z,4.58
2023-03-20T00:09:48.615Z,4.56
2023-03-20T00:12:20.944Z,4.57
2023-03-20T00:14:50.904Z,4.58
2023-03-20T00:17:21.149Z,4.58
2023-03-20T00:19:56.103Z,4.57
2023-03-20T00:22:24.228Z,4.54
2023-03-20T00:24:52.239Z,4.53
2023-03-20T00:27:37.545Z,4.55
2023-03-20T00:30:20.841Z,4.56
2023-03-20T00:32:50.476Z,4.57
2023-03-20T00:35:30.012Z,4.56
2023-03-20T00:38:03.705Z,4.54
2023-03-20T00:40:31.996Z,4.53
2023-03-20T00:43:02.250Z,4.53
2023-03-20T00:45:32.165Z,4.54
2023-03-20T00:48:01.852Z,4.56
2023-03-20T00:50:30.905Z,4.60
2023-03-20T00:52:59.407Z,4.62
2023-03-20T00:55:30.047Z,4.67
2023-03-20T00:58:01.201Z,4.69
2023-03-20T01:00:40.516Z,4.71
2023-03-20T01:03:12.405Z,4.73
2023-03-20T01:05:40.926Z,4.73
2023-03-20T01:08:14.967Z,4.73
2023-03-20T01:10:43.782Z,4.71
2023-03-20T01:13:20.145Z,4.71
2023-03-20T01:15:49.172Z,4.73
2023-03-20T01:18:17.505Z,4.73
2023-03-20T01:20:46.212Z,4.74
2023-03-20T01:23:14.840Z,4.72
2023-03-20T01:25:42.844Z,4.70
2023-03-20T01:28:18.773Z,4.69
2023-03-20T01:30:46.943Z,4.68
2023-03-20T01:33:34.849Z,4.69
2023-03-20T01:36:03.392Z,4.69
2023-03-20T01:38:32.021Z,4.69
2023-03-20T01:41:10.254Z,4.69
2023-03-20T01:43:39.279Z,4.69
2023-03-20T01:46:19.523Z,4.70
2023-03-20T01:48:50.700Z,4.70
2023-03-20T01:51:40.831Z,4.68
2023-03-20T01:54:13.467Z,4.67
2023-03-20T01:57:10.992Z,4.66
2023-03-20T01:59:43.835Z,4.65
2023-03-20T02:02:17.738Z,4.65
2023-03-20T02:04:46.845Z,4.65
2023-03-20T02:07:18.688Z,4.65
2023-03-20T02:10:01.941Z,4.62
2023-03-20T02:12:45.685Z,4.62
2023-03-20T02:15:14.635Z,4.58
2023-03-20T02:18:01.843Z,4.54
2023-03-20T02:20:52.104Z,4.53
2023-03-20T02:23:47.819Z,4.54
2023-03-20T02:26:31.791Z,4.53
2023-03-20T02:29:23.763Z,4.48
2023-03-20T02:32:12.083Z,4.44
2023-03-20T02:35:02.864Z,4.42
2023-03-20T02:37:53.521Z,4.38
2023-03-20T02:40:39.113Z,4.36
2023-03-20T02:43:31.617Z,4.32
2023-03-20T02:46:04.630Z,4.26
2023-03-20T02:48:55.738Z,4.23
2023-03-20T02:51:45.901Z,4.20
2023-03-20T02:54:53.665Z,4.21
2023-03-20T02:57:31.877Z,4.24
2023-03-20T03:00:09.874Z,4.29
2023-03-20T03:02:43.364Z,4.31
2023-03-20T03:05:17.448Z,4.32
2023-03-20T03:07:50.058Z,4.32
2023-03-20T03:10:22.402Z,4.28
2023-03-20T03:12:52.640Z,4.25
2023-03-20T03:15:28.225Z,4.23
2023-03-20T03:17:58.254Z,4.26
2023-03-20T03:20:31.511Z,4.30
2023-03-20T03:23:00.556Z,4.35
2023-03-20T03:25:30.797Z,4.38
2023-03-20T03:28:08.882Z,4.41
2023-03-20T03:30:38.154Z,4.42
2023-03-20T03:33:25.634Z,4.39
2023-03-20T03:35:56.704Z,4.39
2023-03-20T03:38:30.427Z,4.42
2023-03-20T03:41:19.318Z,4.43
2023-03-20T03:44:12.956Z,4.43
2023-03-20T03:47:09.571Z,4.44
2023-03-20T03:49:57.485Z,4.44
2023-03-20T03:52:29.432Z,4.47
2023-03-20T03:55:02.614Z,4.49
2023-03-20T03:57:42.394Z,4.52
2023-03-20T04:00:17.816Z,4.54
2023-03-20T04:02:51.778Z,4.53
2023-03-20T04:05:31.557Z,4.50
2023-03-20T04:08:02.687Z,4.47
2023-03-20T04:10:32.667Z,4.45
2023-03-20T04:13:04.798Z,4.44
2023-03-20T04:15:36.558Z,4.44
2023-03-20T04:18:09.240Z,4.44
2023-03-20T04:20:42.532Z,4.42
2023-03-20T04:23:13.517Z,4.38
2023-03-20T04:25:46.684Z,4.36
2023-03-20T04:28:19.573Z,4.37
2023-03-20T04:31:15.210Z,4.40
2023-03-20T04:33:55.502Z,4.40
2023-03-20T04:36:45.539Z,4.35
2023-03-20T04:39:18.522Z,4.33
2023-03-20T04:41:49.611Z,4.32
2023-03-20T04:51:54.929Z,4.34
2023-03-20T04:54:36.406Z,4.31
2023-03-20T04:57:05.143Z,4.30
2023-03-20T04:59:34.241Z,4.30
2023-03-20T05:02:06.979Z,4.32
2023-03-20T05:04:37.304Z,4.34
2023-03-20T05:07:06.097Z,4.39
2023-03-20T05:09:42.246Z,4.41
2023-03-20T05:12:10.933Z,4.41
2023-03-20T05:15:01.433Z,4.37
2023-03-20T05:17:51.715Z,4.36
2023-03-20T05:20:41.917Z,4.33
2023-03-20T05:23:29.346Z,4.29
2023-03-20T05:26:16.679Z,4.30
2023-03-20T05:29:14.432Z,4.32
2023-03-20T05:32:02.400Z,4.32
2023-03-20T05:34:42.121Z,4.31
2023-03-20T05:37:20.873Z,4.28
2023-03-20T05:40:13.477Z,4.30
2023-03-20T05:42:56.918Z,4.36
2023-03-20T05:45:43.012Z,4.39
2023-03-20T05:48:34.742Z,4.43
2023-03-20T05:51:27.931Z,4.48
2023-03-20T05:54:02.189Z,4.50
2023-03-20T05:56:42.552Z,4.52
2023-03-20T05:59:13.827Z,4.54
2023-03-20T06:02:01.484Z,4.54
2023-03-20T06:04:37.366Z,4.54
2023-03-20T06:07:18.083Z,4.52
2023-03-20T06:09:51.091Z,4.52
2023-03-20T06:12:19.967Z,4.52
2023-03-20T06:14:48.777Z,4.52
2023-03-20T06:17:20.534Z,4.51
2023-03-20T06:19:54.319Z,4.47
2023-03-20T06:22:23.834Z,4.44
2023-03-20T06:24:56.862Z,4.40
2023-03-20T06:27:31.596Z,4.40
2023-03-20T06:30:01.331Z,4.43
2023-03-20T06:32:34.296Z,4.45
2023-03-20T06:35:05.996Z,4.48
2023-03-20T06:37:36.750Z,4.49
2023-03-20T06:40:12.923Z,4.49
2023-03-20T06:42:42.351Z,4.45
2023-03-20T06:45:12.454Z,4.41
2023-03-20T06:48:08.444Z,4.41
2023-03-20T06:50:37.705Z,4.41
2023-03-20T06:53:07.101Z,4.43
2023-03-20T06:56:05.942Z,4.41
2023-03-20T06:58:34.628Z,4.43
2023-03-20T07:01:09.076Z,4.45
2023-03-20T07:03:39.247Z,4.45
2023-03-20T07:06:09.742Z,4.41
2023-03-20T07:08:40.910Z,4.40
2023-03-20T07:11:10.454Z,4.41
2023-03-20T07:13:39.888Z,4.42
2023-03-20T07:16:46.485Z,4.47
2023-03-20T07:19:38.123Z,4.48
2023-03-20T07:22:42.154Z,4.51
2023-03-20T07:25:35.346Z,4.54
2023-03-20T07:28:10.678Z,4.51
2023-03-20T07:30:42.521Z,4.47
2023-03-20T07:33:11.773Z,4.49
2023-03-20T07:35:41.659Z,4.52
2023-03-20T07:38:10.039Z,4.49
2023-03-20T07:40:46.764Z,4.47
2023-03-20T07:43:18.059Z,4.49
2023-03-20T07:46:14.203Z,4.49
2023-03-20T07:48:42.444Z,4.50
2023-03-20T07:51:10.862Z,4.53
2023-03-20T07:53:41.286Z,4.56
2023-03-20T07:56:11.180Z,4.58
2023-03-20T07:58:39.512Z,4.58
2023-03-20T08:01:08.608Z,4.60
2023-03-20T08:03:38.856Z,4.65
2023-03-20T08:06:13.705Z,4.70
2023-03-20T08:08:43.317Z,4.70
2023-03-20T08:11:12.146Z,4.72
2023-03-20T08:13:40.909Z,4.76
2023-03-20T08:16:09.817Z,4.79
2023-03-20T08:18:44.828Z,4.79
2023-03-20T08:21:13.567Z,4.81
2023-03-20T08:23:41.656Z,4.84
2023-03-20T08:26:16.680Z,4.86
2023-03-20T08:28:47.880Z,4.85
2023-03-20T08:31:17.991Z,4.84
2023-03-20T08:33:46.630Z,4.90
2023-03-20T08:36:16.084Z,5.01
2023-03-20T08:38:49.633Z,5.11
2023-03-20T08:41:18.377Z,5.21
2023-03-20T08:43:46.300Z,5.30
2023-03-20T08:46:15.198Z,5.35
2023-03-20T08:48:44.110Z,5.37
2023-03-20T08:51:14.263Z,5.35
2023-03-20T08:53:42.740Z,5.31
2023-03-20T08:56:10.994Z,5.25
2023-03-20T08:58:39.889Z,5.28
2023-03-20T09:01:09.440Z,5.34
2023-03-20T09:03:38.217Z,5.42
2023-03-20T09:06:07.653Z,5.45
2023-03-20T09:08:36.388Z,5.50
2023-03-20T09:11:07.224Z,5.57
2023-03-20T09:13:36.607Z,5.62
2023-03-20T09:16:04.964Z,5.66
2023-03-20T09:18:34.022Z,5.74
2023-03-20T09:21:02.469Z,5.79
2023-03-20T09:23:32.020Z,5.83
2023-03-20T09:25:59.998Z,5.90
2023-03-20T09:28:28.353Z,5.96
2023-03-20T09:30:58.065Z,6.01
2023-03-20T09:33:27.127Z,6.08
2023-03-20T09:35:55.644Z,6.14
2023-03-20T09:38:24.486Z,6.17
2023-03-20T09:41:03.248Z,6.17
2023-03-20T09:43:51.949Z,6.14
2023-03-20T09:46:33.725Z,6.18
2023-03-20T09:49:05.065Z,6.26
2023-03-20T09:51:40.537Z,6.33
2023-03-20T09:54:17.756Z,6.37
2023-03-20T09:56:47.211Z,6.36
2023-03-20T09:59:16.548Z,6.36
2023-03-20T10:01:56.536Z,6.39
2023-03-20T10:04:26.938Z,6.45
2023-03-20T10:06:56.976Z,6.46
2023-03-20T10:09:27.080Z,6.45
2023-03-20T10:12:20.958Z,6.48
2023-03-20T10:15:12.218Z,6.55
2023-03-20T10:18:02.843Z,6.67
2023-03-20T10:20:36.463Z,6.73
2023-03-20T10:23:16.791Z,6.71
2023-03-20T10:25:51.501Z,6.71
2023-03-20T10:28:23.242Z,6.75
2023-03-20T10:31:04.646Z,6.75
2023-03-20T10:33:51.320Z,6.70
2023-03-20T10:36:39.354Z,6.64
2023-03-20T10:39:30.013Z,6.56
2023-03-20T10:42:00.750Z,6.53
2023-03-20T10:44:37.791Z,6.56
2023-03-20T10:47:09.107Z,6.65
2023-03-20T10:49:50.567Z,6.72
2023-03-20T10:52:23.088Z,6.74
2023-03-20T10:54:57.030Z,6.76
2023-03-20T10:57:27.756Z,6.77
2023-03-20T10:59:56.770Z,6.78
2023-03-20T11:02:28.893Z,6.83
2023-03-20T11:04:58.396Z,6.92
2023-03-20T11:07:28.430Z,7.01
2023-03-20T11:10:06.546Z,7.08
2023-03-20T11:12:39.214Z,7.11
2023-03-20T11:15:20.804Z,7.13
2023-03-20T11:18:04.232Z,7.10
2023-03-20T11:20:38.869Z,7.02
2023-03-20T11:23:08.275Z,6.98
2023-03-20T11:25:46.992Z,7.01
2023-03-20T11:28:25.942Z,7.04
2023-03-20T11:31:05.881Z,7.05
2023-03-20T11:33:37.917Z,7.00
2023-03-20T11:36:22.070Z,6.96
2023-03-20T11:38:51.615Z,6.92
2023-03-20T11:41:25.175Z,6.81
2023-03-20T11:43:53.685Z,6.79
2023-03-20T11:46:23.458Z,6.86
2023-03-20T11:49:04.919Z,6.96
2023-03-20T11:51:35.590Z,7.04
2023-03-20T11:54:15.974Z,7.09
2023-03-20T11:56:59.733Z,7.14
2023-03-20T11:59:35.115Z,7.22
2023-03-20T12:02:05.269Z,7.32
2023-03-20T12:04:38.033Z,7.38
2023-03-20T12:07:27.012Z,7.44
2023-03-20T12:10:01.763Z,7.50
2023-03-20T12:12:52.742Z,7.57
2023-03-20T12:15:52.349Z,7.63
2023-03-20T12:18:41.299Z,7.66
2023-03-20T12:21:59.202Z,7.66
2023-03-20T12:24:46.390Z,7.63
2023-03-20T12:27:18.704Z,7.63
2023-03-20T12:29:48.981Z,7.55
2023-03-20T12:32:31.723Z,7.48
2023-03-20T12:35:02.947Z,7.47
2023-03-20T12:37:32.578Z,7.47
2023-03-20T12:40:01.006Z,7.50
2023-03-20T12:42:57.587Z,7.51
2023-03-20T12:45:31.676Z,7.50
2023-03-20T12:48:22.416Z,7.52
2023-03-20T12:51:06.035Z,7.56
2023-03-20T12:53:41.187Z,7.54
2023-03-20T12:56:32.742Z,7.46
2023-03-20T12:59:06.895Z,7.41
2023-03-20T13:01:53.585Z,7.44
2023-03-20T13:04:37.238Z,7.48
2023-03-20T13:07:12.235Z,7.50
2023-03-20T13:09:58.887Z,7.48
2023-03-20T13:12:37.212Z,7.47
2023-03-20T13:15:17.971Z,7.47
2023-03-20T13:17:48.397Z,7.39
2023-03-20T13:20:19.650Z,7.27
2023-03-20T13:23:19.448Z,7.17
2023-03-20T13:26:25.886Z,7.06
2023-03-20T13:29:33.936Z,6.96
2023-03-20T13:32:08.381Z,6.99
2023-03-20T13:34:59.711Z,7.05
2023-03-20T13:37:33.529Z,7.14
2023-03-20T13:40:24.290Z,7.21
2023-03-20T13:42:58.815Z,7.25
2023-03-20T13:45:38.869Z,7.27
2023-03-20T13:48:30.501Z,7.23
2023-03-20T13:51:06.375Z,7.17
2023-03-20T13:53:41.894Z,7.15
2023-03-20T13:56:29.014Z,7.15
2023-03-20T13:59:15.941Z,7.15
2023-03-20T14:08:30.758Z,7.25
2023-03-20T14:11:32.926Z,7.26
2023-03-20T14:14:15.428Z,7.30
2023-03-20T14:16:44.821Z,7.32
2023-03-20T14:19:21.106Z,7.34
2023-03-20T14:21:50.589Z,7.33
2023-03-20T14:24:20.523Z,7.30
2023-03-20T14:26:51.375Z,7.26
2023-03-20T14:29:41.332Z,7.22
2023-03-20T14:32:15.956Z,7.10
2023-03-20T14:35:00.945Z,7.04
2023-03-20T14:37:38.537Z,6.99
2023-03-20T14:40:20.948Z,6.92
2023-03-20T14:42:57.853Z,6.82
2023-03-20T14:45:28.845Z,6.76
2023-03-20T14:48:26.589Z,6.72
2023-03-20T14:51:13.530Z,6.68
2023-03-20T14:53:41.879Z,6.65
2023-03-20T14:56:12.436Z,6.62
2023-03-20T14:58:49.341Z,6.60
2023-03-20T15:01:21.884Z,6.55
2023-03-20T15:04:10.469Z,6.52
2023-03-20T15:06:47.900Z,6.46
2023-03-20T15:09:16.853Z,6.43
2023-03-20T15:11:45.314Z,6.40
2023-03-20T15:14:23.214Z,6.36
2023-03-20T15:16:57.493Z,6.31
2023-03-20T15:19:25.920Z,6.27
2023-03-20T15:21:55.544Z,6.23
2023-03-20T15:24:28.921Z,6.18
2023-03-20T15:27:00.348Z,6.13
2023-03-20T15:29:29.796Z,6.10
2023-03-20T15:32:12.751Z,6.06
2023-03-20T15:34:42.948Z,5.98
2023-03-20T15:37:16.945Z,5.91
2023-03-20T15:39:52.264Z,5.85
2023-03-20T15:42:21.901Z,5.78
2023-03-20T15:44:52.108Z,5.71
2023-03-20T15:47:22.656Z,5.64
2023-03-20T15:49:58.671Z,5.55
2023-03-20T15:52:30.808Z,5.44
2023-03-20T15:55:06.867Z,5.34
2023-03-20T15:57:39.513Z,5.24
2023-03-20T16:00:27.385Z,5.16
2023-03-20T16:02:55.504Z,5.08
2023-03-20T16:05:26.756Z,5.02
2023-03-20T16:07:55.039Z,4.97
2023-03-20T16:10:38.201Z,4.92
2023-03-20T16:13:07.572Z,4.86
2023-03-20T16:15:35.925Z,4.80
2023-03-20T16:18:04.776Z,4.72
2023-03-20T16:20:39.083Z,4.65
2023-03-20T16:23:08.347Z,4.55
2023-03-20T16:25:36.775Z,4.44
2023-03-20T16:28:07.373Z,4.34
2023-03-20T16:30:36.919Z,4.28
2023-03-20T16:33:11.258Z,4.22
2023-03-20T16:35:48.650Z,4.14
2023-03-20T16:38:29.397Z,4.07
2023-03-20T16:41:28.553Z,4.00
2023-03-20T16:43:57.741Z,3.93
2023-03-20T16:46:27.513Z,3.87
2023-03-20T16:49:13.939Z,3.82
2023-03-20T16:51:43.368Z,3.77
2023-03-20T16:54:18.998Z,3.70
2023-03-20T16:56:52.290Z,3.63
2023-03-20T16:59:20.441Z,3.56
2023-03-20T17:01:51.837Z,3.50
2023-03-20T17:04:24.364Z,3.44
2023-03-20T17:06:59.544Z,3.37
2023-03-20T17:09:28.932Z,3.33
2023-03-20T17:12:03.524Z,3.27
2023-03-20T17:14:32.360Z,3.20
2023-03-20T17:17:00.879Z,3.14
2023-03-20T17:19:29.541Z,3.08
2023-03-20T17:21:59.914Z,3.03
2023-03-20T17:24:28.052Z,2.97
2023-03-20T17:26:57.331Z,2.88
2023-03-20T17:29:25.923Z,2.80
2023-03-20T17:31:54.457Z,2.75
2023-03-20T17:34:22.816Z,2.72
2023-03-20T17:36:51.151Z,2.69
2023-03-20T17:39:24.994Z,2.66
2023-03-20T17:41:53.347Z,2.62
2023-03-20T17:44:22.330Z,2.60
2023-03-20T17:47:17.782Z,2.56
2023-03-20T17:49:47.253Z,2.51
2023-03-20T17:52:17.905Z,2.44
2023-03-20T17:54:48.051Z,2.38
2023-03-20T17:57:32.835Z,2.34
2023-03-20T18:00:23.610Z,2.30
2023-03-20T18:02:52.275Z,2.25
2023-03-20T18:05:20.915Z,2.19
2023-03-20T18:07:49.429Z,2.11
2023-03-20T18:10:25.691Z,2.03
2023-03-20T18:12:53.783Z,1.98
2023-03-20T18:15:24.707Z,1.92
2023-03-20T18:17:53.014Z,1.88
2023-03-20T18:20:30.101Z,1.85
2023-03-20T18:22:58.549Z,1.83
2023-03-20T18:25:27.606Z,1.81
2023-03-20T18:27:58.590Z,1.81
2023-03-20T18:30:35.193Z,1.81
2023-03-20T18:33:03.590Z,1.80
2023-03-20T18:35:32.040Z,1.78
2023-03-20T18:38:01.868Z,1.75
2023-03-20T18:40:35.364Z,1.74
2023-03-20T18:43:03.815Z,1.72
2023-03-20T18:45:33.016Z,1.67
2023-03-20T18:48:21.071Z,1.59
2023-03-20T18:50:51.273Z,1.53
2023-03-20T18:53:20.271Z,1.48
2023-03-20T18:55:48.655Z,1.44
2023-03-20T18:58:22.418Z,1.40
2023-03-20T19:00:51.078Z,1.35
2023-03-20T19:03:23.962Z,1.30
2023-03-20T19:05:58.040Z,1.24
2023-03-20T19:08:26.111Z,1.15
2023-03-20T19:11:01.135Z,1.08
2023-03-20T19:13:29.780Z,1.01
2023-03-20T19:15:58.081Z,0.96
2023-03-20T19:18:28.128Z,0.96
2023-03-20T19:20:57.632Z,0.96
2023-03-20T19:23:29.136Z,0.93
2023-03-20T19:25:57.570Z,0.88
2023-03-20T19:28:38.878Z,0.83
2023-03-20T19:31:10.069Z,0.81
2023-03-20T19:33:39.413Z,0.81
2023-03-20T19:36:15.021Z,0.82
2023-03-20T19:38:43.323Z,0.81
2023-03-20T19:41:11.844Z,0.81
2023-03-20T19:43:52.060Z,0.78
2023-03-20T19:46:38.558Z,0.75
2023-03-20T19:49:19.678Z,0.72
2023-03-20T19:51:49.196Z,0.71
2023-03-20T19:54:17.644Z,0.73
2023-03-20T19:56:46.027Z,0.75
2023-03-20T19:59:17.132Z,0.77
2023-03-20T20:01:46.174Z,0.78
2023-03-20T20:04:15.160Z,0.78
2023-03-20T20:06:46.650Z,0.79
2023-03-20T20:09:15.873Z,0.77
2023-03-20T20:11:44.385Z,0.76
2023-03-20T20:14:14.773Z,0.73
2023-03-20T20:16:44.018Z,0.71
2023-03-20T20:19:12.385Z,0.70
2023-03-20T20:24:31.875Z,0.66
2023-03-20T20:27:16.865Z,0.64
2023-03-20T20:29:51.681Z,0.65
2023-03-20T20:32:23.869Z,0.66
2023-03-20T20:40:32.697Z,0.66
2023-03-20T20:43:02.656Z,0.65
2023-03-20T20:45:43.773Z,0.65
2023-03-20T20:48:12.835Z,0.63
2023-03-20T20:50:43.413Z,0.62
2023-03-20T20:53:14.568Z,0.64
2023-03-20T20:55:43.012Z,0.65
2023-03-20T20:58:12.251Z,0.66
2023-03-20T21:00:51.677Z,0.65
2023-03-20T21:03:21.926Z,0.61
2023-03-20T21:05:52.522Z,0.59
2023-03-20T21:08:20.884Z,0.58
2023-03-20T21:10:55.552Z,0.60
2023-03-20T21:13:24.043Z,0.59
2023-03-20T21:15:59.431Z,0.58
2023-03-20T21:18:28.987Z,0.57
2023-03-20T21:21:08.318Z,0.57
2023-03-20T21:23:36.879Z,0.57
2023-03-20T21:26:08.338Z,0.55
2023-03-20T21:28:37.040Z,0.53
2023-03-20T21:39:07.270Z,0.49
2023-03-20T21:41:38.025Z,0.47
2023-03-20T21:44:06.949Z,0.47
2023-03-20T21:50:17.441Z,0.46
2023-03-20T21:58:36.639Z,0.41
2023-03-20T22:01:29.440Z,0.36
2023-03-20T22:04:26.940Z,0.31
2023-03-20T22:07:18.646Z,0.29
2023-03-20T22:12:49.893Z,0.29
2023-03-20T22:15:29.079Z,0.27
2023-03-20T22:18:19.402Z,0.27
2023-03-20T22:27:01.684Z,0.26
2023-03-20T22:32:47.795Z,0.25
2023-03-20T22:45:11.239Z,0.27
2023-03-20T22:47:41.600Z,0.28
2023-03-20T22:50:11.207Z,0.29
2023-03-20T22:52:48.565Z,0.29
2023-03-20T22:55:18.143Z,0.30
2023-03-20T22:57:59.860Z,0.27
2023-03-20T23:00:39.740Z,0.25
2023-03-20T23:03:22.287Z,0.22
2023-03-20T23:05:51.451Z,0.20
2023-03-20T23:08:19.862Z,0.19
2023-03-20T23:10:49.132Z,0.15
2023-03-20T23:13:22.632Z,0.12
2023-03-20T23:15:51.246Z,0.11
2023-03-20T23:18:19.714Z,0.09
2023-03-20T23:20:49.504Z,0.10
2023-03-20T23:23:19.049Z,0.12
2023-03-20T23:25:47.302Z,0.15
2023-03-20T23:28:15.898Z,0.19
2023-03-20T23:30:51.887Z,0.21
2023-03-20T23:33:25.156Z,0.22
2023-03-20T23:36:13.950Z,0.20
2023-03-20T23:38:44.853Z,0.19
2023-03-20T23:41:13.020Z,0.20
2023-03-20T23:43:43.558Z,0.20
2023-03-20T23:46:14.634Z,0.21
2023-03-20T23:48:44.828Z,0.22
2023-03-20T23:51:12.972Z,0.24
2023-03-20T23:53:43.120Z,0.26
2023-03-20T23:56:12.701Z,0.27
2023-03-20T23:58:59.367Z,0.30
